aviador You're here:

KDTO Decoded Metar

DENTON in TX, USA
Report Time2018-05-23 15:53:00
UTC Time2018-05-23 16:32:07
Flight Rules vfr VFR
Wind180° at 07 kt
W.Decomp.*RWY 18: 7.0 kt HW 0.5 kt LCW
W.Rank180° ranks 4
Current wind is below 180° avg. (10.8)
Visibility9999 m
Phenomena:N/A
Clouds:Few 031 Hf
Expected CloudBase > 2,800 ft AGL from Temp-Dew spread
CeilingNone
Temp28°C (ISA +14)
Dew Point21°C (66% RH)
Heat Index30.2°C
QNH1018 hPa
Density Alt2,448 ft
Elevation643 ft
Report Wrong Elevation
Raw Report
KDTO 231553Z 18007KT 130V210 10SM FEW031 28/21 A3007 RMK AO2
SLP175 T02830206=

Extra information for KDTO:More info

Metar Taf Metar & Taf Last 4 Metars F.Rules Stats Wind Profile Meteogram Temp Stats Airport Information Weather charts Add Link Nearby VenuesMetar ALERT Operation Metar Decoded Social comments

AIRNAV info for KDTO